createdAt,value
2023-01-25T00:01:01.895Z,7.20
2023-01-25T00:03:29.896Z,7.80
2023-01-25T00:05:57.793Z,7.22
2023-01-25T00:08:25.689Z,7.38
2023-01-25T00:10:53.572Z,7.22
2023-01-25T00:13:21.516Z,7.10
2023-01-25T00:15:49.355Z,7.45
2023-01-25T00:18:17.298Z,7.68
2023-01-25T00:20:45.181Z,7.50
2023-01-25T00:23:13.080Z,7.78
2023-01-25T00:25:41.112Z,8.25
2023-01-25T00:28:09.050Z,7.72
2023-01-25T00:30:54.251Z,7.43
2023-01-25T00:33:22.068Z,7.53
2023-01-25T00:35:50.037Z,7.55
2023-01-25T00:38:17.901Z,7.47
2023-01-25T00:40:45.781Z,7.50
2023-01-25T00:43:14.760Z,7.75
2023-01-25T00:45:42.551Z,7.72
2023-01-25T00:48:10.483Z,7.70
2023-01-25T00:50:38.253Z,7.40
2023-01-25T00:53:06.264Z,7.85
2023-01-25T00:55:34.104Z,7.03
2023-01-25T00:58:02.115Z,7.63
2023-01-25T01:00:29.937Z,7.40
2023-01-25T01:02:57.827Z,6.97
2023-01-25T01:05:25.667Z,7.75
2023-01-25T01:07:53.485Z,7.13
2023-01-25T01:10:21.317Z,7.80
2023-01-25T01:12:49.096Z,7.95
2023-01-25T01:15:34.580Z,6.93
2023-01-25T01:18:20.150Z,7.20
2023-01-25T01:20:48.173Z,8.23
2023-01-25T01:23:16.028Z,7.47
2023-01-25T01:25:43.922Z,8.18
2023-01-25T01:28:11.792Z,7.85
2023-01-25T01:30:39.649Z,7.85
2023-01-25T01:33:07.629Z,7.35
2023-01-25T01:35:35.469Z,7.28
2023-01-25T01:38:03.459Z,7.20
2023-01-25T01:40:31.552Z,7.63
2023-01-25T01:42:59.701Z,7.20
2023-01-25T01:45:27.627Z,6.72
2023-01-25T01:47:55.452Z,7.28
2023-01-25T01:50:23.319Z,7.03
2023-01-25T01:52:51.403Z,6.93
2023-01-25T01:55:19.287Z,6.53
2023-01-25T01:57:47.151Z,7.18
2023-01-25T02:00:14.995Z,7.20
2023-01-25T02:02:43.143Z,7.88
2023-01-25T02:05:11.050Z,7.47
2023-01-25T02:07:38.929Z,7.13
2023-01-25T02:10:06.768Z,7.30
2023-01-25T02:12:34.720Z,7.07
2023-01-25T02:15:02.631Z,6.82
2023-01-25T02:17:30.537Z,7.30
2023-01-25T02:19:58.391Z,7.20
2023-01-25T02:22:26.481Z,7.05
2023-01-25T02:24:54.305Z,7.25
2023-01-25T02:27:22.141Z,7.50
2023-01-25T02:29:49.981Z,7.25
2023-01-25T02:32:17.970Z,6.90
2023-01-25T02:34:45.791Z,7.03
2023-01-25T02:37:13.776Z,6.90
2023-01-25T02:39:41.860Z,6.65
2023-01-25T02:42:09.749Z,7.07
2023-01-25T02:44:37.661Z,7.40
2023-01-25T02:47:05.477Z,6.97
2023-01-25T02:49:33.359Z,6.82
2023-01-25T02:52:01.346Z,6.88
2023-01-25T02:54:29.137Z,7.25
2023-01-25T02:56:57.021Z,6.75
2023-01-25T02:59:24.900Z,6.82
2023-01-25T03:01:52.835Z,6.70
2023-01-25T03:04:20.821Z,6.70
2023-01-25T03:06:48.805Z,6.75
2023-01-25T03:09:16.661Z,6.25
2023-01-25T03:11:44.674Z,7.40
2023-01-25T03:14:12.537Z,6.70
2023-01-25T03:16:40.365Z,6.60
2023-01-25T03:19:08.194Z,6.78
2023-01-25T03:21:36.090Z,6.53
2023-01-25T03:24:04.039Z,6.82
2023-01-25T03:26:51.906Z,7.20
2023-01-25T03:29:19.876Z,6.93
2023-01-25T03:31:47.822Z,7.10
2023-01-25T03:34:15.869Z,6.65
2023-01-25T03:36:43.768Z,6.60
2023-01-25T03:39:11.590Z,6.72
2023-01-25T03:41:39.476Z,6.88
2023-01-25T03:44:07.338Z,6.45
2023-01-25T03:46:35.217Z,6.00
2023-01-25T03:49:03.067Z,6.25
2023-01-25T03:51:30.917Z,6.68
2023-01-25T03:53:58.796Z,7.32
2023-01-25T03:56:26.784Z,6.38
2023-01-25T03:58:54.616Z,6.15
2023-01-25T04:01:22.503Z,7.03
2023-01-25T04:03:50.420Z,6.95
2023-01-25T04:06:18.269Z,7.43
2023-01-25T04:08:46.074Z,6.68
2023-01-25T04:11:13.944Z,7.15
2023-01-25T04:13:41.842Z,6.55
2023-01-25T04:16:09.942Z,6.80
2023-01-25T04:18:37.876Z,6.65
2023-01-25T04:21:05.732Z,7.28
2023-01-25T04:23:33.612Z,6.80
2023-01-25T04:26:01.590Z,7.05
2023-01-25T04:28:29.489Z,7.07
2023-01-25T04:30:57.656Z,6.82
2023-01-25T04:33:25.576Z,6.97
2023-01-25T04:35:53.447Z,6.53
2023-01-25T04:38:21.423Z,6.85
2023-01-25T04:40:49.296Z,7.35
2023-01-25T04:43:17.288Z,7.97
2023-01-25T04:45:45.257Z,7.55
2023-01-25T04:48:13.454Z,6.75
2023-01-25T04:50:41.395Z,6.72
2023-01-25T04:53:09.388Z,7.45
2023-01-25T04:55:37.492Z,7.18
2023-01-25T04:58:05.292Z,6.97
2023-01-25T05:00:33.361Z,7.03
2023-01-25T05:03:01.253Z,7.20
2023-01-25T05:05:29.288Z,7.80
2023-01-25T05:07:57.390Z,7.30
2023-01-25T05:10:25.268Z,7.07
2023-01-25T05:12:53.805Z,6.10
2023-01-25T05:15:23.517Z,6.80
2023-01-25T05:17:51.591Z,6.68
2023-01-25T05:20:19.704Z,7.00
2023-01-25T05:22:48.015Z,6.93
2023-01-25T05:25:29.932Z,6.55
2023-01-25T05:27:58.002Z,6.68
2023-01-25T05:30:25.875Z,6.63
2023-01-25T05:32:53.903Z,6.28
2023-01-25T05:35:21.776Z,6.43
2023-01-25T05:37:49.622Z,6.68
2023-01-25T05:40:17.581Z,6.63
2023-01-25T05:42:45.455Z,6.47
2023-01-25T05:45:13.337Z,6.65
2023-01-25T05:47:41.249Z,7.20
2023-01-25T05:50:09.641Z,7.22
2023-01-25T05:52:37.699Z,6.78
2023-01-25T05:55:05.591Z,7.45
2023-01-25T05:57:33.459Z,6.80
2023-01-25T06:00:02.229Z,7.10
2023-01-25T06:02:30.243Z,6.88
2023-01-25T06:04:58.236Z,6.78
2023-01-25T06:07:26.269Z,7.07
2023-01-25T06:09:54.371Z,6.43
2023-01-25T06:12:22.454Z,6.55
2023-01-25T06:14:50.539Z,6.90
2023-01-25T06:17:18.493Z,6.90
2023-01-25T06:19:46.490Z,7.03
2023-01-25T06:22:14.361Z,6.65
2023-01-25T06:24:42.262Z,6.50
2023-01-25T06:27:11.034Z,6.15
2023-01-25T06:29:38.940Z,6.32
2023-01-25T06:32:06.832Z,7.18
2023-01-25T06:34:34.857Z,7.18
2023-01-25T06:37:02.882Z,7.15
2023-01-25T06:39:30.977Z,6.70
2023-01-25T06:41:59.016Z,6.82
2023-01-25T06:44:27.003Z,7.13
2023-01-25T06:46:55.548Z,7.25
2023-01-25T06:49:23.532Z,6.95
2023-01-25T06:51:51.531Z,6.57
2023-01-25T06:54:19.407Z,7.00
2023-01-25T06:56:47.327Z,6.63
2023-01-25T06:59:16.157Z,6.30
2023-01-25T07:01:44.088Z,6.60
2023-01-25T07:04:12.141Z,6.15
2023-01-25T07:06:40.133Z,6.35
2023-01-25T07:09:08.022Z,6.43
2023-01-25T07:11:36.048Z,6.22
2023-01-25T07:14:03.924Z,6.38
2023-01-25T07:16:38.673Z,6.38
2023-01-25T07:19:06.629Z,6.15
2023-01-25T07:21:34.542Z,5.97
2023-01-25T07:24:02.952Z,5.88
2023-01-25T07:26:30.869Z,6.28
2023-01-25T07:28:58.786Z,6.10
2023-01-25T07:31:26.864Z,5.68
2023-01-25T07:33:54.892Z,5.55
2023-01-25T07:36:22.797Z,5.65
2023-01-25T07:38:50.772Z,5.82
2023-01-25T07:41:18.578Z,6.20
2023-01-25T07:43:46.551Z,5.93
2023-01-25T07:46:15.656Z,5.88
2023-01-25T07:48:43.563Z,5.65
2023-01-25T07:51:22.878Z,5.75
2023-01-25T07:53:51.498Z,5.30
2023-01-25T07:56:19.537Z,5.70
2023-01-25T07:58:47.478Z,5.15
2023-01-25T08:01:15.354Z,5.70
2023-01-25T08:03:44.037Z,5.70
2023-01-25T08:06:12.329Z,5.78
2023-01-25T08:08:40.343Z,5.78
2023-01-25T08:11:08.286Z,5.78
2023-01-25T08:13:36.208Z,5.75
2023-01-25T08:16:04.306Z,5.75
2023-01-25T08:18:32.147Z,5.97
2023-01-25T08:21:00.506Z,5.88
2023-01-25T08:23:28.389Z,5.72
2023-01-25T08:25:56.476Z,5.82
2023-01-25T08:28:24.425Z,5.32
2023-01-25T08:30:57.510Z,5.13
2023-01-25T08:33:26.137Z,5.25
2023-01-25T08:35:54.226Z,5.63
2023-01-25T08:38:22.152Z,5.38
2023-01-25T08:40:49.983Z,5.15
2023-01-25T08:43:17.811Z,5.47
2023-01-25T08:45:45.650Z,5.20
2023-01-25T08:48:15.988Z,4.88
2023-01-25T08:50:44.039Z,5.47
2023-01-25T08:53:11.981Z,4.80
2023-01-25T08:55:40.630Z,4.90
2023-01-25T08:58:11.136Z,4.75
2023-01-25T09:00:38.984Z,5.20
2023-01-25T09:03:06.844Z,5.25
2023-01-25T09:05:34.685Z,4.93
2023-01-25T09:08:02.591Z,5.32
2023-01-25T09:10:30.430Z,4.97
2023-01-25T09:12:58.299Z,5.00
2023-01-25T09:15:26.174Z,4.72
2023-01-25T09:17:54.039Z,4.85
2023-01-25T09:20:21.896Z,4.97
2023-01-25T09:22:49.929Z,5.25
2023-01-25T09:25:17.829Z,5.18
2023-01-25T09:27:45.769Z,5.65
2023-01-25T09:30:18.763Z,5.15
2023-01-25T09:32:47.499Z,5.38
2023-01-25T09:35:15.371Z,5.00
2023-01-25T09:37:43.314Z,5.07
2023-01-25T09:40:11.379Z,5.33
2023-01-25T09:42:39.692Z,5.28
2023-01-25T09:45:07.735Z,5.30
2023-01-25T09:47:35.761Z,5.10
2023-01-25T09:50:03.716Z,5.35
2023-01-25T09:52:31.632Z,5.30
2023-01-25T09:54:59.575Z,5.18
2023-01-25T09:57:27.420Z,5.38
2023-01-25T09:59:55.352Z,5.30
2023-01-25T10:02:24.724Z,5.30
2023-01-25T10:04:52.668Z,5.43
2023-01-25T10:07:20.900Z,5.00
2023-01-25T10:09:48.844Z,4.97
2023-01-25T10:12:16.903Z,5.07
2023-01-25T10:14:44.773Z,5.38
2023-01-25T10:17:13.688Z,5.18
2023-01-25T10:19:41.742Z,5.30
2023-01-25T10:22:09.601Z,5.38
2023-01-25T10:24:37.441Z,5.00
2023-01-25T10:27:05.349Z,5.40
2023-01-25T10:29:33.253Z,5.18
2023-01-25T10:32:01.204Z,5.18
2023-01-25T10:34:29.248Z,4.93
2023-01-25T10:36:57.145Z,4.93
2023-01-25T10:39:25.111Z,4.90
2023-01-25T10:41:53.004Z,5.03
2023-01-25T10:44:24.696Z,4.70
2023-01-25T10:46:52.839Z,4.82
2023-01-25T10:49:20.808Z,5.40
2023-01-25T10:51:48.709Z,4.88
2023-01-25T10:54:16.595Z,4.68
2023-01-25T10:56:44.545Z,4.68
2023-01-25T10:59:12.471Z,5.10
2023-01-25T11:01:40.491Z,4.93
2023-01-25T11:04:08.478Z,4.85
2023-01-25T11:06:36.386Z,5.38
2023-01-25T11:09:04.447Z,4.68
2023-01-25T11:11:32.358Z,5.00
2023-01-25T11:14:00.235Z,4.40
2023-01-25T11:16:28.118Z,4.50
2023-01-25T11:18:55.985Z,4.90
2023-01-25T11:21:25.305Z,4.43
2023-01-25T11:23:53.372Z,5.22
2023-01-25T11:26:21.537Z,5.07
2023-01-25T11:28:49.926Z,4.88
2023-01-25T11:31:20.791Z,5.00
2023-01-25T11:33:48.858Z,5.00
2023-01-25T11:36:16.858Z,4.75
2023-01-25T11:38:44.867Z,5.07
2023-01-25T11:41:12.815Z,5.13
2023-01-25T11:43:40.878Z,5.20
2023-01-25T11:46:08.776Z,4.50
2023-01-25T11:48:36.718Z,4.90
2023-01-25T11:51:04.626Z,4.80
2023-01-25T11:53:32.596Z,4.90
2023-01-25T11:56:00.621Z,4.90
2023-01-25T11:58:28.509Z,5.28
2023-01-25T12:00:56.357Z,5.07
2023-01-25T12:03:24.256Z,5.28
2023-01-25T12:05:52.300Z,5.43
2023-01-25T12:08:20.144Z,4.70
2023-01-25T12:10:48.133Z,4.95
2023-01-25T12:13:16.026Z,5.75
2023-01-25T12:15:44.254Z,5.35
2023-01-25T12:18:13.256Z,4.88
2023-01-25T12:20:41.198Z,4.63
2023-01-25T12:23:09.088Z,5.60
2023-01-25T12:25:37.068Z,5.32
2023-01-25T12:28:05.199Z,5.55
2023-01-25T12:30:33.138Z,5.43
2023-01-25T12:33:14.012Z,5.30
2023-01-25T12:35:42.401Z,5.40
2023-01-25T12:38:10.519Z,5.43
2023-01-25T12:40:38.453Z,5.47
2023-01-25T12:43:06.293Z,5.30
2023-01-25T12:45:34.237Z,5.00
2023-01-25T12:48:02.179Z,5.15
2023-01-25T12:50:30.120Z,5.18
2023-01-25T12:52:58.042Z,5.07
2023-01-25T12:55:25.960Z,5.20
2023-01-25T12:57:54.113Z,5.47
2023-01-25T13:00:21.980Z,4.70
2023-01-25T13:02:51.064Z,5.18
2023-01-25T13:05:19.008Z,5.20
2023-01-25T13:07:47.117Z,5.05
2023-01-25T13:10:15.121Z,4.95
2023-01-25T13:12:43.442Z,5.45
2023-01-25T13:15:11.496Z,4.63
2023-01-25T13:17:40.753Z,6.97
2023-01-25T13:20:09.416Z,5.22
2023-01-25T13:22:37.443Z,5.10
2023-01-25T13:25:05.752Z,5.18
2023-01-25T13:27:35.844Z,5.18
2023-01-25T13:30:04.441Z,5.35
2023-01-25T13:32:32.358Z,5.45
2023-01-25T13:35:00.259Z,5.07
2023-01-25T13:37:29.168Z,5.00
2023-01-25T13:39:57.143Z,5.03
2023-01-25T13:42:25.499Z,5.63
2023-01-25T13:44:53.512Z,5.32
2023-01-25T13:47:21.467Z,4.95
2023-01-25T13:49:49.314Z,5.55
2023-01-25T13:52:17.209Z,4.95
2023-01-25T13:54:45.211Z,4.60
2023-01-25T13:57:14.263Z,4.90
2023-01-25T13:59:42.279Z,5.57
2023-01-25T14:02:10.222Z,5.25
2023-01-25T14:04:38.156Z,5.82
2023-01-25T14:07:10.119Z,5.35
2023-01-25T14:09:38.404Z,5.90
2023-01-25T14:12:07.042Z,5.32
2023-01-25T14:14:35.050Z,5.45
2023-01-25T14:17:03.184Z,5.60
2023-01-25T14:19:31.474Z,5.35
2023-01-25T14:21:59.446Z,5.50
2023-01-25T14:24:27.417Z,5.60
2023-01-25T14:26:55.726Z,5.97
2023-01-25T14:29:32.510Z,5.57
2023-01-25T14:32:00.979Z,5.35
2023-01-25T14:34:28.928Z,5.25
2023-01-25T14:36:57.187Z,5.50
2023-01-25T14:39:25.297Z,5.35
2023-01-25T14:42:00.948Z,5.85
2023-01-25T14:44:29.521Z,5.85
2023-01-25T14:46:57.408Z,5.43
2023-01-25T14:49:28.984Z,4.93
2023-01-25T14:51:57.006Z,5.40
2023-01-25T14:54:24.836Z,5.03
2023-01-25T14:56:53.166Z,4.78
2023-01-25T14:59:21.081Z,5.07
2023-01-25T15:01:49.003Z,4.78
2023-01-25T15:04:16.907Z,4.28
2023-01-25T15:06:45.046Z,4.63
2023-01-25T15:09:13.051Z,4.13
2023-01-25T15:11:49.084Z,4.05
2023-01-25T15:14:17.060Z,3.97
2023-01-25T15:16:45.008Z,3.83
2023-01-25T15:19:13.054Z,3.63
2023-01-25T15:21:41.050Z,3.30
2023-01-25T15:24:12.175Z,3.40
2023-01-25T15:26:40.114Z,3.40
2023-01-25T15:29:08.241Z,3.20
2023-01-25T15:31:36.154Z,3.45
2023-01-25T15:34:04.161Z,3.30
2023-01-25T15:39:23.649Z,3.10
2023-01-25T15:41:51.486Z,2.97
2023-01-25T15:44:20.463Z,3.13
2023-01-25T15:46:48.412Z,3.20
2023-01-25T15:49:16.312Z,3.58
2023-01-25T15:51:44.267Z,3.63
2023-01-25T15:54:12.355Z,3.60
2023-01-25T15:56:40.315Z,3.83
2023-01-25T15:59:08.260Z,3.75
2023-01-25T16:01:36.246Z,3.70
2023-01-25T16:04:04.096Z,4.35
2023-01-25T16:06:31.999Z,4.28
2023-01-25T16:08:59.990Z,4.22
2023-01-25T16:11:27.877Z,4.15
2023-01-25T16:13:57.008Z,4.30
2023-01-25T16:16:24.956Z,4.35
2023-01-25T16:18:52.973Z,4.72
2023-01-25T16:21:20.869Z,4.65
2023-01-25T16:23:48.802Z,4.30
2023-01-25T16:26:16.679Z,4.68
2023-01-25T16:28:44.672Z,4.68
2023-01-25T16:31:22.559Z,4.80
2023-01-25T16:33:57.960Z,4.68
2023-01-25T16:36:25.918Z,4.28
2023-01-25T16:38:53.969Z,4.75
2023-01-25T16:41:21.859Z,4.85
2023-01-25T16:43:49.766Z,4.72
2023-01-25T16:46:17.708Z,4.70
2023-01-25T16:48:45.620Z,4.63
2023-01-25T16:51:13.629Z,4.57
2023-01-25T16:53:41.538Z,5.05
2023-01-25T16:56:09.408Z,5.20
2023-01-25T16:58:37.262Z,4.80
2023-01-25T17:01:05.177Z,4.90
2023-01-25T17:03:33.090Z,4.60
2023-01-25T17:06:01.167Z,4.68
2023-01-25T17:08:29.039Z,4.43
2023-01-25T17:10:57.567Z,4.50
2023-01-25T17:13:25.507Z,4.43
2023-01-25T17:15:53.461Z,4.50
2023-01-25T17:18:21.376Z,4.18
2023-01-25T17:20:49.298Z,4.30
2023-01-25T17:23:17.245Z,4.22
2023-01-25T17:25:45.173Z,4.30
2023-01-25T17:28:13.090Z,4.13
2023-01-25T17:30:41.040Z,4.40
2023-01-25T17:33:09.691Z,4.40
2023-01-25T17:35:37.628Z,4.30
2023-01-25T17:38:05.509Z,4.75
2023-01-25T17:40:33.507Z,4.78
2023-01-25T17:43:01.335Z,4.78
2023-01-25T17:45:29.265Z,4.97
2023-01-25T17:47:57.168Z,4.50
2023-01-25T17:50:25.076Z,4.75
2023-01-25T17:52:52.898Z,4.55
2023-01-25T17:55:20.710Z,4.30
2023-01-25T17:57:48.641Z,5.00
2023-01-25T18:00:16.519Z,4.68
2023-01-25T18:02:45.137Z,4.75
2023-01-25T18:05:13.081Z,4.72
2023-01-25T18:07:41.059Z,4.55
2023-01-25T18:10:09.423Z,4.93
2023-01-25T18:12:37.704Z,4.80
2023-01-25T18:15:05.546Z,4.53
2023-01-25T18:17:35.701Z,4.70
2023-01-25T18:20:05.166Z,4.88
2023-01-25T18:22:33.136Z,4.65
2023-01-25T18:25:01.123Z,4.60
2023-01-25T18:27:28.991Z,4.63
2023-01-25T18:29:57.042Z,4.78
2023-01-25T18:32:24.961Z,4.53
2023-01-25T18:34:52.889Z,4.87
2023-01-25T18:37:21.898Z,4.82
2023-01-25T18:39:49.816Z,4.82
2023-01-25T18:42:17.728Z,4.53
2023-01-25T18:44:48.404Z,4.90
2023-01-25T18:47:18.750Z,4.78
2023-01-25T18:49:46.742Z,5.10
2023-01-25T18:52:16.096Z,4.38
2023-01-25T18:54:44.003Z,4.60
2023-01-25T18:57:12.147Z,4.35
2023-01-25T18:59:40.076Z,4.60
2023-01-25T19:02:07.969Z,3.88
2023-01-25T19:04:35.943Z,3.95
2023-01-25T19:07:04.175Z,3.60
2023-01-25T19:09:32.099Z,3.22
2023-01-25T19:12:00.012Z,3.55
2023-01-25T19:14:27.860Z,3.30
2023-01-25T19:16:55.795Z,3.42
2023-01-25T19:19:23.729Z,3.25
2023-01-25T19:24:43.788Z,3.30
2023-01-25T19:27:11.700Z,3.50
2023-01-25T19:29:39.656Z,3.63
2023-01-25T19:32:07.684Z,3.45
2023-01-25T19:34:35.595Z,3.53
2023-01-25T19:37:03.476Z,3.60
2023-01-25T19:39:31.317Z,4.15
2023-01-25T19:41:59.228Z,3.67
2023-01-25T19:44:27.122Z,4.03
2023-01-25T19:46:55.035Z,4.35
2023-01-25T19:49:23.810Z,4.03
2023-01-25T19:51:53.858Z,4.15
2023-01-25T19:54:21.927Z,3.92
2023-01-25T19:56:49.908Z,4.07
2023-01-25T19:59:17.887Z,4.10
2023-01-25T20:01:46.431Z,3.85
2023-01-25T20:04:14.601Z,4.22
2023-01-25T20:06:42.550Z,4.35
2023-01-25T20:09:10.461Z,4.32
2023-01-25T20:11:38.602Z,4.30
2023-01-25T20:14:06.703Z,4.88
2023-01-25T20:16:34.608Z,4.40
2023-01-25T20:19:02.468Z,4.35
2023-01-25T20:21:31.081Z,4.72
2023-01-25T20:24:00.565Z,4.30
2023-01-25T20:26:28.525Z,4.43
2023-01-25T20:28:56.581Z,4.38
2023-01-25T20:31:24.486Z,4.95
2023-01-25T20:33:53.153Z,4.72
2023-01-25T20:36:21.184Z,4.70
2023-01-25T20:38:49.093Z,4.35
2023-01-25T20:41:17.029Z,4.55
2023-01-25T20:43:44.881Z,4.50
2023-01-25T20:46:12.918Z,4.65
2023-01-25T20:48:40.850Z,4.95
2023-01-25T20:51:09.849Z,5.15
2023-01-25T20:53:37.814Z,5.65
2023-01-25T20:56:05.652Z,4.93
2023-01-25T20:58:33.539Z,4.70
2023-01-25T21:01:01.499Z,5.00
2023-01-25T21:03:30.203Z,4.97
2023-01-25T21:05:58.158Z,5.32
2023-01-25T21:08:26.081Z,4.68
2023-01-25T21:10:53.881Z,5.20
2023-01-25T21:13:21.772Z,5.30
2023-01-25T21:15:49.776Z,5.22
2023-01-25T21:18:17.739Z,4.38
2023-01-25T21:20:45.574Z,5.40
2023-01-25T21:23:13.447Z,5.57
2023-01-25T21:25:41.341Z,5.47
2023-01-25T21:28:09.223Z,5.07
2023-01-25T21:30:37.159Z,5.07
2023-01-25T21:33:05.018Z,5.20
2023-01-25T21:35:32.844Z,5.70
2023-01-25T21:38:00.966Z,5.45
2023-01-25T21:40:30.576Z,6.07
2023-01-25T21:42:58.727Z,5.43
2023-01-25T21:45:44.368Z,5.40
2023-01-25T21:48:12.240Z,5.05
2023-01-25T21:50:57.501Z,5.30
2023-01-25T21:53:25.347Z,5.80
2023-01-25T21:55:53.186Z,5.80
2023-01-25T21:58:21.060Z,5.70
2023-01-25T22:00:48.927Z,5.90
2023-01-25T22:03:16.792Z,5.18
2023-01-25T22:05:44.629Z,5.15
2023-01-25T22:08:12.491Z,5.63
2023-01-25T22:10:40.329Z,5.35
2023-01-25T22:13:08.342Z,5.40
2023-01-25T22:15:36.189Z,5.50
2023-01-25T22:18:04.218Z,5.47
2023-01-25T22:20:32.042Z,5.90
2023-01-25T22:22:59.896Z,5.95
2023-01-25T22:25:27.898Z,5.93
2023-01-25T22:27:59.018Z,5.47
2023-01-25T22:30:26.893Z,5.68
2023-01-25T22:32:54.843Z,5.93
2023-01-25T22:35:22.704Z,5.53
2023-01-25T22:37:50.603Z,5.88
2023-01-25T22:40:18.449Z,5.90
2023-01-25T22:42:46.316Z,5.95
2023-01-25T22:45:14.260Z,5.38
2023-01-25T22:47:42.159Z,5.50
2023-01-25T22:50:10.334Z,5.63
2023-01-25T22:52:38.481Z,5.72
2023-01-25T22:55:06.365Z,5.88
2023-01-25T22:57:34.160Z,5.55
2023-01-25T23:00:02.107Z,6.05
2023-01-25T23:02:30.154Z,5.55
2023-01-25T23:04:58.023Z,5.68
2023-01-25T23:07:25.968Z,5.40
2023-01-25T23:09:54.188Z,5.90
2023-01-25T23:12:22.130Z,5.47
2023-01-25T23:14:52.984Z,5.50
2023-01-25T23:17:38.553Z,5.80
2023-01-25T23:20:06.513Z,5.47
2023-01-25T23:22:34.386Z,5.78
2023-01-25T23:25:02.289Z,5.80
2023-01-25T23:27:30.296Z,5.78
2023-01-25T23:29:58.216Z,5.80
2023-01-25T23:32:26.026Z,5.82
2023-01-25T23:34:54.367Z,5.50
2023-01-25T23:37:22.986Z,5.72
2023-01-25T23:39:51.751Z,5.53
2023-01-25T23:42:19.633Z,5.40
2023-01-25T23:44:47.513Z,5.30
2023-01-25T23:47:15.427Z,5.70
2023-01-25T23:49:43.264Z,5.35
2023-01-25T23:52:11.166Z,5.00
2023-01-25T23:54:39.030Z,5.38
2023-01-25T23:57:06.917Z,5.50
2023-01-25T23:59:34.828Z,5.18
